createdAt,value
2018-08-28T00:02:21.451Z,17.80
2018-08-28T00:04:50.542Z,17.80
2018-08-28T00:07:19.016Z,17.70
2018-08-28T00:09:50.859Z,17.70
2018-08-28T00:12:19.264Z,17.70
2018-08-28T00:14:47.801Z,17.70
2018-08-28T00:17:29.661Z,17.70
2018-08-28T00:19:58.885Z,17.60
2018-08-28T00:22:27.300Z,17.60
2018-08-28T00:24:57.453Z,17.60
2018-08-28T00:27:27.045Z,17.60
2018-08-28T00:29:55.589Z,17.60
2018-08-28T00:32:25.485Z,17.70
2018-08-28T00:34:53.901Z,17.70
2018-08-28T00:37:22.544Z,17.60
2018-08-28T00:39:53.033Z,17.60
2018-08-28T00:42:22.207Z,17.60
2018-08-28T00:44:50.746Z,17.60
2018-08-28T00:47:19.215Z,17.60
2018-08-28T00:49:47.949Z,17.60
2018-08-28T00:52:16.438Z,17.60
2018-08-28T00:54:45.035Z,17.60
2018-08-28T00:57:13.565Z,17.50
2018-08-28T00:59:55.889Z,17.40
2018-08-28T01:02:24.539Z,17.30
2018-08-28T01:04:53.494Z,17.20
2018-08-28T01:07:23.360Z,17.20
2018-08-28T01:09:51.853Z,17.10
2018-08-28T01:12:24.660Z,17.00
2018-08-28T01:14:53.244Z,17.00
2018-08-28T01:17:21.724Z,16.90
2018-08-28T01:19:51.466Z,16.80
2018-08-28T01:22:22.165Z,16.70
2018-08-28T01:24:50.601Z,16.60
2018-08-28T01:27:19.097Z,16.50
2018-08-28T01:29:51.848Z,16.40
2018-08-28T01:32:20.344Z,16.40
2018-08-28T01:34:51.777Z,16.40
2018-08-28T01:37:20.838Z,16.40
2018-08-28T01:39:52.206Z,16.30
2018-08-28T01:42:24.272Z,16.30
2018-08-28T01:44:52.912Z,16.20
2018-08-28T01:47:22.178Z,16.10
2018-08-28T01:49:52.209Z,16.10
2018-08-28T01:52:24.887Z,16.00
2018-08-28T01:54:53.414Z,16.00
2018-08-28T01:57:22.115Z,15.90
2018-08-28T01:59:51.730Z,15.80
2018-08-28T02:02:20.159Z,15.70
2018-08-28T02:04:48.589Z,15.70
2018-08-28T02:07:19.904Z,15.70
2018-08-28T02:09:49.468Z,15.60
2018-08-28T02:12:17.897Z,15.50
2018-08-28T02:14:46.417Z,15.50
2018-08-28T02:17:15.800Z,15.50
2018-08-28T02:19:44.211Z,15.40
2018-08-28T02:22:12.836Z,15.40
2018-08-28T02:24:41.781Z,15.40
2018-08-28T02:27:10.187Z,15.30
2018-08-28T02:29:39.766Z,15.30
2018-08-28T02:32:09.292Z,15.30
2018-08-28T02:34:38.491Z,15.20
2018-08-28T02:37:06.920Z,15.10
2018-08-28T02:39:36.167Z,15.10
2018-08-28T02:42:06.281Z,15.10
2018-08-28T02:44:36.698Z,15.10
2018-08-28T02:47:06.222Z,15.00
2018-08-28T02:49:35.343Z,15.00
2018-08-28T02:52:04.436Z,15.00
2018-08-28T02:54:33.212Z,15.00
2018-08-28T02:57:02.317Z,14.90
2018-08-28T02:59:31.937Z,14.90
2018-08-28T03:02:00.705Z,14.90
2018-08-28T03:04:29.625Z,14.80
2018-08-28T03:06:59.164Z,14.80
2018-08-28T03:09:28.841Z,14.80
2018-08-28T03:11:59.289Z,14.80
2018-08-28T03:14:27.669Z,14.70
2018-08-28T03:16:57.017Z,14.70
2018-08-28T03:19:27.808Z,14.70
2018-08-28T03:21:58.794Z,14.60
2018-08-28T03:24:27.242Z,14.60
2018-08-28T03:26:55.826Z,14.60
2018-08-28T03:29:24.241Z,14.60
2018-08-28T03:31:58.253Z,14.50
2018-08-28T03:34:28.249Z,14.50
2018-08-28T03:36:58.231Z,14.50
2018-08-28T03:39:26.648Z,14.40
2018-08-28T03:42:00.426Z,14.40
2018-08-28T03:44:29.120Z,14.30
2018-08-28T03:46:57.621Z,14.30
2018-08-28T03:49:26.025Z,14.30
2018-08-28T03:51:57.141Z,14.30
2018-08-28T03:54:25.784Z,14.20
2018-08-28T03:56:55.294Z,14.20
2018-08-28T03:59:23.674Z,14.20
2018-08-28T04:01:52.077Z,14.10
2018-08-28T04:04:20.496Z,14.10
2018-08-28T04:06:48.957Z,14.10
2018-08-28T04:09:17.374Z,14.00
2018-08-28T04:11:46.404Z,14.00
2018-08-28T04:14:14.808Z,14.00
2018-08-28T04:16:43.208Z,14.00
2018-08-28T04:19:11.594Z,13.90
2018-08-28T04:21:41.091Z,13.90
2018-08-28T04:24:12.140Z,13.90
2018-08-28T04:26:40.536Z,13.80
2018-08-28T04:29:10.459Z,13.80
2018-08-28T04:31:38.853Z,13.80
2018-08-28T04:34:07.281Z,13.80
2018-08-28T04:36:35.680Z,13.70
2018-08-28T04:39:05.399Z,13.70
2018-08-28T04:41:33.764Z,13.70
2018-08-28T04:44:02.175Z,13.70
2018-08-28T04:46:30.586Z,13.70
2018-08-28T04:48:59.010Z,13.70
2018-08-28T04:51:28.068Z,13.60
2018-08-28T04:53:56.525Z,13.60
2018-08-28T04:56:24.949Z,13.60
2018-08-28T04:58:53.588Z,13.70
2018-08-28T05:01:22.007Z,13.70
2018-08-28T05:03:50.400Z,13.70
2018-08-28T05:06:18.817Z,13.70
2018-08-28T05:08:47.276Z,13.70
2018-08-28T05:11:15.776Z,13.70
2018-08-28T05:13:44.319Z,13.70
2018-08-28T05:16:13.005Z,13.70
2018-08-28T05:18:41.424Z,13.80
2018-08-28T05:21:09.860Z,13.80
2018-08-28T05:23:38.487Z,13.80
2018-08-28T05:26:06.915Z,13.90
2018-08-28T05:28:35.328Z,13.90
2018-08-28T05:31:03.741Z,13.90
2018-08-28T05:33:32.132Z,14.00
2018-08-28T05:36:00.547Z,14.00
2018-08-28T05:38:28.928Z,14.00
2018-08-28T05:40:57.356Z,14.10
2018-08-28T05:43:25.743Z,14.10
2018-08-28T05:45:54.166Z,14.20
2018-08-28T05:48:22.708Z,14.20
2018-08-28T05:50:51.128Z,14.30
2018-08-28T05:53:19.493Z,14.40
2018-08-28T05:55:47.930Z,14.40
2018-08-28T05:58:16.327Z,14.50
2018-08-28T06:00:45.048Z,14.60
2018-08-28T06:03:13.548Z,14.60
2018-08-28T06:05:41.904Z,14.70
2018-08-28T06:08:10.442Z,14.90
2018-08-28T06:10:38.942Z,15.00
2018-08-28T06:13:07.392Z,15.10
2018-08-28T06:15:35.779Z,15.20
2018-08-28T06:18:04.234Z,15.30
2018-08-28T06:20:32.652Z,15.30
2018-08-28T06:23:01.068Z,15.40
2018-08-28T06:25:29.465Z,15.50
2018-08-28T06:27:57.872Z,15.60
2018-08-28T06:30:26.361Z,15.60
2018-08-28T06:32:54.793Z,15.70
2018-08-28T06:35:23.177Z,15.80
2018-08-28T06:37:51.592Z,15.90
2018-08-28T06:40:20.104Z,16.10
2018-08-28T06:42:48.517Z,16.30
2018-08-28T06:45:16.914Z,16.40
2018-08-28T06:47:45.370Z,16.50
2018-08-28T06:50:13.764Z,16.70
2018-08-28T06:52:42.209Z,16.80
2018-08-28T06:55:10.848Z,16.90
2018-08-28T06:57:39.293Z,17.00
2018-08-28T07:00:08.272Z,17.10
2018-08-28T07:02:36.928Z,17.20
2018-08-28T07:05:05.399Z,17.30
2018-08-28T07:07:33.878Z,17.30
2018-08-28T07:10:02.356Z,17.60
2018-08-28T07:12:30.703Z,17.70
2018-08-28T07:14:59.139Z,17.80
2018-08-28T07:17:27.517Z,17.90
2018-08-28T07:19:55.925Z,18.10
2018-08-28T07:22:24.792Z,18.20
2018-08-28T07:24:53.179Z,18.30
2018-08-28T07:27:21.586Z,18.40
2018-08-28T07:29:50.001Z,18.40
2018-08-28T07:32:18.379Z,18.60
2018-08-28T07:34:46.992Z,18.70
2018-08-28T07:37:15.413Z,18.80
2018-08-28T07:39:44.072Z,18.90
2018-08-28T07:42:12.492Z,18.90
2018-08-28T07:44:41.200Z,19.00
2018-08-28T07:47:09.626Z,19.00
2018-08-28T07:49:38.014Z,19.00
2018-08-28T07:52:06.677Z,19.00
2018-08-28T07:54:35.064Z,19.00
2018-08-28T07:57:03.532Z,19.30
2018-08-28T07:59:31.910Z,19.50
2018-08-28T08:02:00.293Z,19.50
2018-08-28T08:04:28.692Z,19.60
2018-08-28T08:06:57.076Z,19.70
2018-08-28T08:09:25.492Z,19.70
2018-08-28T08:11:53.921Z,19.70
2018-08-28T08:14:22.318Z,19.80
2018-08-28T08:16:50.793Z,19.80
2018-08-28T08:19:19.200Z,19.80
2018-08-28T08:21:47.617Z,20.10
2018-08-28T08:24:16.176Z,20.30
2018-08-28T08:26:44.589Z,20.10
2018-08-28T08:29:13.256Z,20.10
2018-08-28T08:31:41.993Z,20.50
2018-08-28T08:34:10.384Z,20.70
2018-08-28T08:36:38.805Z,20.70
2018-08-28T08:39:09.469Z,20.50
2018-08-28T08:41:38.461Z,20.40
2018-08-28T08:44:07.152Z,20.60
2018-08-28T08:46:35.541Z,20.50
2018-08-28T08:49:03.922Z,20.60
2018-08-28T08:51:32.308Z,20.60
2018-08-28T08:54:00.711Z,20.70
2018-08-28T08:56:29.144Z,20.70
2018-08-28T08:58:57.544Z,20.90
2018-08-28T09:01:26.161Z,21.10
2018-08-28T09:03:54.557Z,21.10
2018-08-28T09:06:22.985Z,21.60
2018-08-28T09:08:51.354Z,21.70
2018-08-28T09:11:19.798Z,21.70
2018-08-28T09:13:48.196Z,21.70
2018-08-28T09:16:16.685Z,21.50
2018-08-28T09:18:45.240Z,21.30
2018-08-28T09:21:13.629Z,20.90
2018-08-28T09:23:42.059Z,21.00
2018-08-28T09:26:10.524Z,21.50
2018-08-28T09:28:38.957Z,21.50
2018-08-28T09:31:07.401Z,21.60
2018-08-28T09:33:35.799Z,21.70
2018-08-28T09:36:04.287Z,21.80
2018-08-28T09:38:32.710Z,21.90
2018-08-28T09:41:01.496Z,22.10
2018-08-28T09:43:29.912Z,22.10
2018-08-28T09:45:58.313Z,22.20
2018-08-28T09:48:26.829Z,22.10
2018-08-28T09:50:55.282Z,22.30
2018-08-28T09:53:23.617Z,22.60
2018-08-28T09:55:51.994Z,22.60
2018-08-28T09:58:20.457Z,22.70
2018-08-28T10:00:54.233Z,22.90
2018-08-28T10:03:22.638Z,22.80
2018-08-28T10:05:51.327Z,22.70
2018-08-28T10:08:19.778Z,21.80
2018-08-28T10:10:48.218Z,22.30
2018-08-28T10:13:16.628Z,22.30
2018-08-28T10:15:45.075Z,22.30
2018-08-28T10:18:13.529Z,22.60
2018-08-28T10:20:41.923Z,23.10
2018-08-28T10:23:10.341Z,23.10
2018-08-28T10:25:38.768Z,23.30
2018-08-28T10:28:07.569Z,23.50
2018-08-28T10:30:35.986Z,23.60
2018-08-28T10:33:04.636Z,23.60
2018-08-28T10:35:33.041Z,23.80
2018-08-28T10:38:01.566Z,23.70
2018-08-28T10:40:30.280Z,23.60
2018-08-28T10:42:58.677Z,23.70
2018-08-28T10:45:27.137Z,23.70
2018-08-28T10:47:55.640Z,23.60
2018-08-28T10:50:24.075Z,23.70
2018-08-28T10:52:52.544Z,23.70
2018-08-28T10:55:20.969Z,24.00
2018-08-28T10:57:49.390Z,24.10
2018-08-28T11:00:17.824Z,24.20
2018-08-28T11:02:46.305Z,24.30
2018-08-28T11:05:14.753Z,24.50
2018-08-28T11:07:43.180Z,24.60
2018-08-28T11:10:11.593Z,24.80
2018-08-28T11:12:40.442Z,24.60
2018-08-28T11:15:09.225Z,24.30
2018-08-28T11:17:37.782Z,24.40
2018-08-28T11:20:06.236Z,24.50
2018-08-28T11:22:34.656Z,24.70
2018-08-28T11:25:03.154Z,24.50
2018-08-28T11:27:31.944Z,24.50
2018-08-28T11:30:00.419Z,24.50
2018-08-28T11:32:28.798Z,24.60
2018-08-28T11:34:57.237Z,24.60
2018-08-28T11:37:25.670Z,24.50
2018-08-28T11:39:54.106Z,24.60
2018-08-28T11:42:22.567Z,24.70
2018-08-28T11:44:50.981Z,24.40
2018-08-28T11:47:19.657Z,24.20
2018-08-28T11:49:47.919Z,23.90
2018-08-28T11:52:16.507Z,23.60
2018-08-28T11:54:45.029Z,23.10
2018-08-28T11:57:13.520Z,22.70
2018-08-28T11:59:41.962Z,22.70
2018-08-28T12:02:10.397Z,22.90
2018-08-28T12:04:38.847Z,23.00
2018-08-28T12:07:07.706Z,23.10
2018-08-28T12:09:36.078Z,23.30
2018-08-28T12:12:04.555Z,23.30
2018-08-28T12:14:32.962Z,23.30
2018-08-28T12:17:01.390Z,23.40
2018-08-28T12:19:29.800Z,22.80
2018-08-28T12:21:58.179Z,22.70
2018-08-28T12:24:26.600Z,22.60
2018-08-28T12:26:55.076Z,22.60
2018-08-28T12:29:23.538Z,22.60
2018-08-28T12:31:51.920Z,22.70
2018-08-28T12:34:20.329Z,22.70
2018-08-28T12:36:48.785Z,22.80
2018-08-28T12:39:17.121Z,22.70
2018-08-28T12:41:45.669Z,22.80
2018-08-28T12:44:14.109Z,23.10
2018-08-28T12:46:42.533Z,23.00
2018-08-28T12:49:10.995Z,22.90
2018-08-28T12:51:39.428Z,23.00
2018-08-28T12:54:07.908Z,23.10
2018-08-28T12:56:36.375Z,23.20
2018-08-28T12:59:04.841Z,23.20
2018-08-28T13:01:33.263Z,23.30
2018-08-28T13:04:01.644Z,23.30
2018-08-28T13:06:30.032Z,23.30
2018-08-28T13:08:58.534Z,23.00
2018-08-28T13:11:27.469Z,23.10
2018-08-28T13:13:56.248Z,23.00
2018-08-28T13:16:24.741Z,23.10
2018-08-28T13:18:53.384Z,23.20
2018-08-28T13:21:21.888Z,23.30
2018-08-28T13:23:50.301Z,23.30
2018-08-28T13:26:18.702Z,23.30
2018-08-28T13:28:47.201Z,23.30
2018-08-28T13:31:15.721Z,23.10
2018-08-28T13:33:44.181Z,23.10
2018-08-28T13:36:12.588Z,23.30
2018-08-28T13:38:40.988Z,23.40
2018-08-28T13:41:09.461Z,23.30
2018-08-28T13:43:37.870Z,23.40
2018-08-28T13:46:06.340Z,23.40
2018-08-28T13:48:34.795Z,23.50
2018-08-28T13:51:03.244Z,23.30
2018-08-28T13:53:31.758Z,23.50
2018-08-28T13:56:00.173Z,23.60
2018-08-28T13:58:28.599Z,23.60
2018-08-28T14:00:57.113Z,23.60
2018-08-28T14:03:25.536Z,23.10
2018-08-28T14:05:54.056Z,23.30
2018-08-28T14:08:22.575Z,23.50
2018-08-28T14:10:50.981Z,23.60
2018-08-28T14:13:19.532Z,23.70
2018-08-28T14:15:47.953Z,23.70
2018-08-28T14:18:16.369Z,23.70
2018-08-28T14:20:44.757Z,23.70
2018-08-28T14:23:13.144Z,23.50
2018-08-28T14:25:41.613Z,23.50
2018-08-28T14:28:10.243Z,23.50
2018-08-28T14:30:38.792Z,23.50
2018-08-28T14:33:07.208Z,23.70
2018-08-28T14:35:35.667Z,23.80
2018-08-28T14:38:04.114Z,23.60
2018-08-28T14:40:32.557Z,23.60
2018-08-28T14:43:00.981Z,23.50
2018-08-28T14:45:29.388Z,23.60
2018-08-28T14:47:57.868Z,23.60
2018-08-28T14:50:26.380Z,23.70
2018-08-28T14:52:54.743Z,23.90
2018-08-28T14:55:23.240Z,23.90
2018-08-28T14:57:51.632Z,24.00
2018-08-28T15:00:20.072Z,24.00
2018-08-28T15:02:48.478Z,23.60
2018-08-28T15:05:16.908Z,23.80
2018-08-28T15:07:45.316Z,23.90
2018-08-28T15:10:13.816Z,23.70
2018-08-28T15:12:42.184Z,23.40
2018-08-28T15:15:10.604Z,23.40
2018-08-28T15:17:38.998Z,23.50
2018-08-28T15:20:07.552Z,23.50
2018-08-28T15:22:35.949Z,23.70
2018-08-28T15:25:04.401Z,23.70
2018-08-28T15:27:32.892Z,23.90
2018-08-28T15:30:01.353Z,24.00
2018-08-28T15:32:29.886Z,23.90
2018-08-28T15:35:01.641Z,23.90
2018-08-28T15:37:30.101Z,24.00
2018-08-28T15:39:58.499Z,24.00
2018-08-28T15:42:26.953Z,24.10
2018-08-28T15:44:55.442Z,24.20
2018-08-28T15:47:23.872Z,24.30
2018-08-28T15:49:52.301Z,24.20
2018-08-28T15:52:20.741Z,24.20
2018-08-28T15:54:49.180Z,24.20
2018-08-28T15:57:17.630Z,24.30
2018-08-28T15:59:46.037Z,24.30
2018-08-28T16:02:14.443Z,24.20
2018-08-28T16:04:42.975Z,24.00
2018-08-28T16:07:11.396Z,24.00
2018-08-28T16:09:39.773Z,23.80
2018-08-28T16:12:08.346Z,24.00
2018-08-28T16:14:36.782Z,23.90
2018-08-28T16:17:05.233Z,24.00
2018-08-28T16:19:33.662Z,24.00
2018-08-28T16:22:03.545Z,24.00
2018-08-28T16:24:32.068Z,24.00
2018-08-28T16:27:00.549Z,24.00
2018-08-28T16:29:28.967Z,24.00
2018-08-28T16:31:57.477Z,24.10
2018-08-28T16:34:25.901Z,24.00
2018-08-28T16:36:54.322Z,23.80
2018-08-28T16:39:22.770Z,23.90
2018-08-28T16:41:51.169Z,23.70
2018-08-28T16:44:19.548Z,23.90
2018-08-28T16:46:48.047Z,23.70
2018-08-28T16:49:16.416Z,23.80
2018-08-28T16:51:44.846Z,23.80
2018-08-28T16:54:13.269Z,23.80
2018-08-28T16:56:41.679Z,23.80
2018-08-28T16:59:10.102Z,23.70
2018-08-28T17:01:38.676Z,23.70
2018-08-28T17:04:06.917Z,23.60
2018-08-28T17:06:35.288Z,23.50
2018-08-28T17:09:05.158Z,23.50
2018-08-28T17:11:33.609Z,23.50
2018-08-28T17:14:02.089Z,23.40
2018-08-28T17:16:30.605Z,23.40
2018-08-28T17:18:59.033Z,23.30
2018-08-28T17:21:27.464Z,23.30
2018-08-28T17:23:55.841Z,23.30
2018-08-28T17:26:24.328Z,23.30
2018-08-28T17:28:52.769Z,23.20
2018-08-28T17:31:21.327Z,23.20
2018-08-28T17:33:49.734Z,23.10
2018-08-28T17:36:18.160Z,23.00
2018-08-28T17:38:46.565Z,22.90
2018-08-28T17:41:14.989Z,22.90
2018-08-28T17:43:43.662Z,22.80
2018-08-28T17:46:12.047Z,22.60
2018-08-28T17:48:40.542Z,22.50
2018-08-28T17:51:08.912Z,22.40
2018-08-28T17:53:37.455Z,22.40
2018-08-28T17:56:05.992Z,22.30
2018-08-28T17:58:34.388Z,22.20
2018-08-28T18:01:03.013Z,22.10
2018-08-28T18:03:31.536Z,21.90
2018-08-28T18:05:59.954Z,21.80
2018-08-28T18:08:28.380Z,21.80
2018-08-28T18:10:56.808Z,21.60
2018-08-28T18:13:25.230Z,21.50
2018-08-28T18:15:53.718Z,21.40
2018-08-28T18:18:22.310Z,21.20
2018-08-28T18:20:50.753Z,21.10
2018-08-28T18:23:19.226Z,21.00
2018-08-28T18:25:47.665Z,20.80
2018-08-28T18:28:16.148Z,20.70
2018-08-28T18:30:44.799Z,20.50
2018-08-28T18:33:13.253Z,20.40
2018-08-28T18:35:41.667Z,20.30
2018-08-28T18:38:10.084Z,20.20
2018-08-28T18:40:38.488Z,20.10
2018-08-28T18:43:06.930Z,20.00
2018-08-28T18:45:35.432Z,19.90
2018-08-28T18:48:03.913Z,19.80
2018-08-28T18:50:32.356Z,19.70
2018-08-28T18:53:01.213Z,19.60
2018-08-28T18:55:29.728Z,19.60
2018-08-28T18:57:58.136Z,19.50
2018-08-28T19:00:26.694Z,19.50
2018-08-28T19:02:55.257Z,19.40
2018-08-28T19:05:23.649Z,19.30
2018-08-28T19:07:52.144Z,19.30
2018-08-28T19:10:20.648Z,19.20
2018-08-28T19:12:49.074Z,19.10
2018-08-28T19:15:18.048Z,19.10
2018-08-28T19:17:46.496Z,19.10
2018-08-28T19:20:14.944Z,19.10
2018-08-28T19:22:43.404Z,19.00
2018-08-28T19:25:12.148Z,19.00
2018-08-28T19:27:40.649Z,18.90
2018-08-28T19:30:09.065Z,18.90
2018-08-28T19:32:37.544Z,18.90
2018-08-28T19:35:06.392Z,18.80
2018-08-28T19:37:34.996Z,18.80
2018-08-28T19:40:03.322Z,18.70
2018-08-28T19:42:31.860Z,18.70
2018-08-28T19:45:00.456Z,18.60
2018-08-28T19:47:29.008Z,18.60
2018-08-28T19:49:57.529Z,18.50
2018-08-28T19:52:25.896Z,18.40
2018-08-28T19:54:54.341Z,18.40
2018-08-28T19:57:22.756Z,18.30
2018-08-28T19:59:51.183Z,18.20
2018-08-28T20:02:20.618Z,18.20
2018-08-28T20:04:49.105Z,18.10
2018-08-28T20:07:17.625Z,18.00
2018-08-28T20:09:46.060Z,18.00
2018-08-28T20:12:14.470Z,18.00
2018-08-28T20:14:43.027Z,17.90
2018-08-28T20:17:11.383Z,17.80
2018-08-28T20:19:39.919Z,17.80
2018-08-28T20:22:10.708Z,17.70
2018-08-28T20:24:39.244Z,17.70
2018-08-28T20:27:07.986Z,17.70
2018-08-28T20:29:36.714Z,17.60
2018-08-28T20:32:05.156Z,17.60
2018-08-28T20:34:33.653Z,17.60
2018-08-28T20:37:02.226Z,17.40
2018-08-28T20:39:30.635Z,17.40
2018-08-28T20:41:59.152Z,17.40
2018-08-28T20:44:28.328Z,17.40
2018-08-28T20:46:56.784Z,17.40
2018-08-28T20:49:25.212Z,17.30
2018-08-28T20:51:59.914Z,17.30
2018-08-28T20:54:33.633Z,17.30
2018-08-28T20:57:02.564Z,17.30
2018-08-28T20:59:37.833Z,17.10
2018-08-28T21:02:06.382Z,17.10
2018-08-28T21:04:34.921Z,17.10
2018-08-28T21:07:03.468Z,17.00
2018-08-28T21:09:32.324Z,17.00
2018-08-28T21:12:00.820Z,17.00
2018-08-28T21:14:29.230Z,16.90
2018-08-28T21:16:57.676Z,16.90
2018-08-28T21:19:26.060Z,16.80
2018-08-28T21:21:54.559Z,16.80
2018-08-28T21:24:22.962Z,16.80
2018-08-28T21:26:51.384Z,16.80
2018-08-28T21:29:19.859Z,16.80
2018-08-28T21:31:48.255Z,16.80
2018-08-28T21:34:16.687Z,16.80
2018-08-28T21:36:45.112Z,16.80
2018-08-28T21:39:13.637Z,16.80
2018-08-28T21:41:42.057Z,16.80
2018-08-28T21:44:10.792Z,16.80
2018-08-28T21:46:39.987Z,16.80
2018-08-28T21:49:08.403Z,16.80
2018-08-28T21:51:37.168Z,16.80
2018-08-28T21:54:05.942Z,16.80
2018-08-28T21:56:34.579Z,16.80
2018-08-28T21:59:03.152Z,16.80
2018-08-28T22:01:31.708Z,16.80
2018-08-28T22:04:00.165Z,16.70
2018-08-28T22:06:33.869Z,16.70
2018-08-28T22:09:02.339Z,16.70
2018-08-28T22:11:32.148Z,16.60
2018-08-28T22:14:00.585Z,16.60
2018-08-28T22:16:28.991Z,16.50
2018-08-28T22:18:57.453Z,16.50
2018-08-28T22:21:25.891Z,16.50
2018-08-28T22:23:54.356Z,16.40
2018-08-28T22:26:22.792Z,16.40
2018-08-28T22:28:51.144Z,16.40
2018-08-28T22:31:19.577Z,16.30
2018-08-28T22:33:48.013Z,16.30
2018-08-28T22:36:16.420Z,16.30
2018-08-28T22:38:44.845Z,16.30
2018-08-28T22:41:13.297Z,16.20
2018-08-28T22:43:41.703Z,16.20
2018-08-28T22:46:10.097Z,16.20
2018-08-28T22:48:38.568Z,16.10
2018-08-28T22:51:06.981Z,16.10
2018-08-28T22:53:35.433Z,16.00
2018-08-28T22:56:03.865Z,16.00
2018-08-28T22:58:32.316Z,15.90
2018-08-28T23:01:00.778Z,15.90
2018-08-28T23:03:29.176Z,15.80
2018-08-28T23:05:57.589Z,15.80
2018-08-28T23:08:26.159Z,15.80
2018-08-28T23:10:54.620Z,15.70
2018-08-28T23:13:23.017Z,15.70
2018-08-28T23:15:52.345Z,15.70
2018-08-28T23:18:20.854Z,15.60
2018-08-28T23:20:49.284Z,15.60
2018-08-28T23:23:17.680Z,15.60
2018-08-28T23:25:46.087Z,15.60
2018-08-28T23:28:14.499Z,15.50
2018-08-28T23:30:42.945Z,15.50
2018-08-28T23:33:11.385Z,15.50
2018-08-28T23:35:39.796Z,15.50
2018-08-28T23:38:08.197Z,15.50
2018-08-28T23:40:36.676Z,15.50
2018-08-28T23:43:05.760Z,15.40
2018-08-28T23:45:34.150Z,15.40
2018-08-28T23:48:02.599Z,15.40
2018-08-28T23:50:31.061Z,15.30
2018-08-28T23:52:59.447Z,15.30
2018-08-28T23:55:27.916Z,15.20
2018-08-28T23:57:56.343Z,15.20
